sensor_id;sensor_type;location;lat;lon;timestamp;pressure;altitude;pressure_sealevel;temperature;humidity
64711;BME280;51139;45.626;6.850;2022-10-30T00:00:31;82843.50;;;13.26;34.42
64711;BME280;51139;45.626;6.850;2022-10-30T00:02:56;82843.34;;;13.77;32.88
64711;BME280;51139;45.626;6.850;2022-10-30T00:05:22;82839.69;;;13.55;33.86
64711;BME280;51139;45.626;6.850;2022-10-30T00:07:48;82836.84;;;13.88;32.06
64711;BME280;51139;45.626;6.850;2022-10-30T00:10:14;82832.31;;;13.63;33.30
64711;BME280;51139;45.626;6.850;2022-10-30T00:12:40;82834.66;;;13.59;33.22
64711;BME280;51139;45.626;6.850;2022-10-30T00:15:06;82831.31;;;13.41;33.90
64711;BME280;51139;45.626;6.850;2022-10-30T00:17:32;82831.59;;;13.80;31.99
64711;BME280;51139;45.626;6.850;2022-10-30T00:19:57;82830.78;;;13.88;32.48
64711;BME280;51139;45.626;6.850;2022-10-30T00:22:23;82836.53;;;13.84;32.33
64711;BME280;51139;45.626;6.850;2022-10-30T00:24:48;82832.63;;;13.50;33.36
64711;BME280;51139;45.626;6.850;2022-10-30T00:27:13;82831.50;;;13.88;32.28
64711;BME280;51139;45.626;6.850;2022-10-30T00:29:39;82840.94;;;13.71;32.11
64711;BME280;51139;45.626;6.850;2022-10-30T00:32:04;82833.72;;;13.82;32.12
64711;BME280;51139;45.626;6.850;2022-10-30T00:34:30;82834.78;;;13.96;31.88
64711;BME280;51139;45.626;6.850;2022-10-30T00:36:55;82830.22;;;13.62;34.05
64711;BME280;51139;45.626;6.850;2022-10-30T00:39:20;82833.09;;;13.74;33.51
64711;BME280;51139;45.626;6.850;2022-10-30T00:41:46;82840.94;;;13.71;33.69
64711;BME280;51139;45.626;6.850;2022-10-30T00:44:50;82826.47;;;13.47;34.25
64711;BME280;51139;45.626;6.850;2022-10-30T00:50:05;82836.88;;;13.53;33.33
64711;BME280;51139;45.626;6.850;2022-10-30T00:52:38;82823.19;;;13.56;33.48
64711;BME280;51139;45.626;6.850;2022-10-30T00:55:09;82822.78;;;13.42;34.49
64711;BME280;51139;45.626;6.850;2022-10-30T00:57:37;82821.31;;;13.49;34.52
64711;BME280;51139;45.626;6.850;2022-10-30T01:00:04;82819.78;;;13.56;34.15
64711;BME280;51139;45.626;6.850;2022-10-30T01:02:30;82824.66;;;13.50;34.40
64711;BME280;51139;45.626;6.850;2022-10-30T01:04:55;82817.06;;;13.64;34.02
64711;BME280;51139;45.626;6.850;2022-10-30T01:07:21;82811.97;;;13.58;34.50
64711;BME280;51139;45.626;6.850;2022-10-30T01:09:46;82813.59;;;13.71;33.45
64711;BME280;51139;45.626;6.850;2022-10-30T01:12:13;82821.50;;;13.61;33.54
64711;BME280;51139;45.626;6.850;2022-10-30T01:14:42;82811.03;;;13.63;33.88
64711;BME280;51139;45.626;6.850;2022-10-30T01:17:46;82814.88;;;13.52;34.37
64711;BME280;51139;45.626;6.850;2022-10-30T01:38:49;82804.22;;;13.70;33.47
64711;BME280;51139;45.626;6.850;2022-10-30T01:41:16;82806.41;;;13.64;33.65
64711;BME280;51139;45.626;6.850;2022-10-30T01:43:43;82808.16;;;13.51;33.54
64711;BME280;51139;45.626;6.850;2022-10-30T01:56:48;82794.16;;;13.78;31.78
64711;BME280;51139;45.626;6.850;2022-10-30T02:01:45;82796.78;;;13.51;33.26
64711;BME280;51139;45.626;6.850;2022-10-30T02:04:12;82789.78;;;13.73;31.37
64711;BME280;51139;45.626;6.850;2022-10-30T02:06:38;82786.72;;;13.49;32.80
64711;BME280;51139;45.626;6.850;2022-10-30T02:09:04;82781.28;;;13.75;31.49
64711;BME280;51139;45.626;6.850;2022-10-30T02:11:31;82778.53;;;13.65;32.08
64711;BME280;51139;45.626;6.850;2022-10-30T02:14:00;82782.06;;;13.50;32.86
64711;BME280;51139;45.626;6.850;2022-10-30T02:16:26;82776.03;;;13.67;32.23
64711;BME280;51139;45.626;6.850;2022-10-30T02:18:51;82776.31;;;13.43;33.26
64711;BME280;51139;45.626;6.850;2022-10-30T02:21:17;82785.34;;;13.58;32.32
64711;BME280;51139;45.626;6.850;2022-10-30T02:23:42;82777.53;;;13.60;32.91
64711;BME280;51139;45.626;6.850;2022-10-30T02:26:08;82775.75;;;13.27;33.80
64711;BME280;51139;45.626;6.850;2022-10-30T02:28:33;82782.66;;;13.48;33.26
64711;BME280;51139;45.626;6.850;2022-10-30T02:30:58;82776.78;;;13.14;33.53
64711;BME280;51139;45.626;6.850;2022-10-30T02:33:24;82770.56;;;13.65;32.08
64711;BME280;51139;45.626;6.850;2022-10-30T02:35:50;82768.66;;;13.75;32.21
64711;BME280;51139;45.626;6.850;2022-10-30T02:38:15;82758.09;;;13.67;32.35
64711;BME280;51139;45.626;6.850;2022-10-30T02:40:41;82763.41;;;13.67;31.79
64711;BME280;51139;45.626;6.850;2022-10-30T02:43:06;82764.13;;;13.95;30.95
64711;BME280;51139;45.626;6.850;2022-10-30T02:45:32;82756.88;;;14.06;30.96
64711;BME280;51139;45.626;6.850;2022-10-30T02:48:00;82763.56;;;13.97;31.29
64711;BME280;51139;45.626;6.850;2022-10-30T02:50:25;82756.44;;;13.99;31.41
64711;BME280;51139;45.626;6.850;2022-10-30T02:52:51;82759.56;;;13.78;32.19
64711;BME280;51139;45.626;6.850;2022-10-30T02:55:17;82749.00;;;13.43;33.37
64711;BME280;51139;45.626;6.850;2022-10-30T02:57:43;82756.34;;;13.52;32.15
64711;BME280;51139;45.626;6.850;2022-10-30T03:00:09;82749.84;;;13.28;33.40
64711;BME280;51139;45.626;6.850;2022-10-30T03:02:34;82755.31;;;13.30;32.81
64711;BME280;51139;45.626;6.850;2022-10-30T03:05:00;82758.31;;;12.99;34.36
64711;BME280;51139;45.626;6.850;2022-10-30T03:07:25;82755.50;;;13.14;33.26
64711;BME280;51139;45.626;6.850;2022-10-30T03:09:50;82752.91;;;12.89;33.85
64711;BME280;51139;45.626;6.850;2022-10-30T03:12:18;82757.06;;;13.18;33.39
64711;BME280;51139;45.626;6.850;2022-10-30T03:14:43;82755.47;;;13.50;32.39
64711;BME280;51139;45.626;6.850;2022-10-30T03:17:09;82752.72;;;13.57;32.13
64711;BME280;51139;45.626;6.850;2022-10-30T03:19:34;82751.00;;;13.52;32.11
64711;BME280;51139;45.626;6.850;2022-10-30T03:22:00;82751.25;;;13.47;32.46
64711;BME280;51139;45.626;6.850;2022-10-30T03:24:25;82742.59;;;13.28;33.51
64711;BME280;51139;45.626;6.850;2022-10-30T03:26:51;82752.50;;;13.28;32.83
64711;BME280;51139;45.626;6.850;2022-10-30T03:29:16;82753.59;;;13.42;32.72
64711;BME280;51139;45.626;6.850;2022-10-30T03:31:42;82749.78;;;13.18;33.37
64711;BME280;51139;45.626;6.850;2022-10-30T03:34:07;82749.63;;;13.16;33.58
64711;BME280;51139;45.626;6.850;2022-10-30T03:36:33;82751.31;;;13.21;33.01
64711;BME280;51139;45.626;6.850;2022-10-30T03:38:58;82748.94;;;13.16;33.07
64711;BME280;51139;45.626;6.850;2022-10-30T03:41:24;82748.09;;;13.40;32.17
64711;BME280;51139;45.626;6.850;2022-10-30T03:43:49;82752.31;;;13.61;32.14
64711;BME280;51139;45.626;6.850;2022-10-30T03:46:15;82747.41;;;13.57;31.88
64711;BME280;51139;45.626;6.850;2022-10-30T03:48:40;82749.16;;;13.73;31.37
64711;BME280;51139;45.626;6.850;2022-10-30T03:51:05;82746.19;;;13.68;31.68
64711;BME280;51139;45.626;6.850;2022-10-30T03:53:31;82747.28;;;13.65;31.43
64711;BME280;51139;45.626;6.850;2022-10-30T03:55:58;82750.28;;;13.52;31.73
64711;BME280;51139;45.626;6.850;2022-10-30T03:58:24;82741.50;;;13.59;32.19
64711;BME280;51139;45.626;6.850;2022-10-30T04:00:49;82757.91;;;13.38;32.80
64711;BME280;51139;45.626;6.850;2022-10-30T04:03:14;82760.09;;;13.32;33.00
64711;BME280;51139;45.626;6.850;2022-10-30T04:05:40;82756.75;;;13.13;33.26
64711;BME280;51139;45.626;6.850;2022-10-30T04:08:10;82761.19;;;13.28;32.90
64711;BME280;51139;45.626;6.850;2022-10-30T04:10:36;82753.13;;;13.36;32.31
64711;BME280;51139;45.626;6.850;2022-10-30T04:13:05;82760.03;;;13.22;33.03
64711;BME280;51139;45.626;6.850;2022-10-30T04:15:32;82759.47;;;13.23;32.99
64711;BME280;51139;45.626;6.850;2022-10-30T04:17:58;82754.84;;;13.41;32.01
64711;BME280;51139;45.626;6.850;2022-10-30T04:20:25;82755.97;;;13.21;33.13
64711;BME280;51139;45.626;6.850;2022-10-30T04:22:58;82746.41;;;13.35;32.76
64711;BME280;51139;45.626;6.850;2022-10-30T04:25:25;82750.66;;;13.03;33.59
64711;BME280;51139;45.626;6.850;2022-10-30T04:27:50;82748.78;;;13.13;33.18
64711;BME280;51139;45.626;6.850;2022-10-30T04:30:19;82750.41;;;13.09;33.53
64711;BME280;51139;45.626;6.850;2022-10-30T04:32:50;82745.50;;;13.05;33.27
64711;BME280;51139;45.626;6.850;2022-10-30T04:35:16;82749.72;;;13.08;33.79
64711;BME280;51139;45.626;6.850;2022-10-30T04:37:48;82746.56;;;13.20;33.09
64711;BME280;51139;45.626;6.850;2022-10-30T04:40:15;82742.25;;;13.24;33.53
64711;BME280;51139;45.626;6.850;2022-10-30T04:42:41;82746.41;;;13.18;33.22
64711;BME280;51139;45.626;6.850;2022-10-30T04:45:06;82749.31;;;13.12;33.01
64711;BME280;51139;45.626;6.850;2022-10-30T04:47:32;82743.59;;;13.16;32.79
64711;BME280;51139;45.626;6.850;2022-10-30T04:49:57;82740.94;;;13.16;33.16
64711;BME280;51139;45.626;6.850;2022-10-30T04:52:22;82746.50;;;13.10;33.76
64711;BME280;51139;45.626;6.850;2022-10-30T04:54:48;82733.34;;;13.12;33.20
64711;BME280;51139;45.626;6.850;2022-10-30T04:57:13;82736.47;;;13.36;33.13
64711;BME280;51139;45.626;6.850;2022-10-30T04:59:39;82732.25;;;13.15;34.02
64711;BME280;51139;45.626;6.850;2022-10-30T05:02:04;82729.84;;;13.09;33.90
64711;BME280;51139;45.626;6.850;2022-10-30T05:04:29;82731.56;;;13.14;33.40
64711;BME280;51139;45.626;6.850;2022-10-30T05:06:55;82737.72;;;13.35;32.69
64711;BME280;51139;45.626;6.850;2022-10-30T05:09:20;82733.59;;;13.06;33.42
64711;BME280;51139;45.626;6.850;2022-10-30T05:11:45;82727.78;;;13.35;33.01
64711;BME280;51139;45.626;6.850;2022-10-30T05:14:11;82723.25;;;13.28;33.41
64711;BME280;51139;45.626;6.850;2022-10-30T05:16:36;82728.94;;;13.24;33.50
64711;BME280;51139;45.626;6.850;2022-10-30T05:19:02;82722.00;;;13.29;33.59
64711;BME280;51139;45.626;6.850;2022-10-30T05:21:27;82711.19;;;13.27;33.70
64711;BME280;51139;45.626;6.850;2022-10-30T05:23:53;82718.91;;;13.05;33.48
64711;BME280;51139;45.626;6.850;2022-10-30T05:26:18;82711.19;;;13.27;33.45
64711;BME280;51139;45.626;6.850;2022-10-30T05:28:43;82714.91;;;13.41;32.91
64711;BME280;51139;45.626;6.850;2022-10-30T05:31:09;82711.53;;;13.13;33.01
64711;BME280;51139;45.626;6.850;2022-10-30T05:33:34;82720.59;;;13.28;32.93
64711;BME280;51139;45.626;6.850;2022-10-30T05:35:59;82711.50;;;13.31;33.04
64711;BME280;51139;45.626;6.850;2022-10-30T05:38:25;82714.09;;;13.21;33.28
64711;BME280;51139;45.626;6.850;2022-10-30T05:40:50;82717.13;;;13.35;32.88
64711;BME280;51139;45.626;6.850;2022-10-30T05:43:15;82706.97;;;13.24;33.28
64711;BME280;51139;45.626;6.850;2022-10-30T05:45:41;82712.00;;;13.20;33.19
64711;BME280;51139;45.626;6.850;2022-10-30T05:48:07;82721.53;;;13.23;33.55
64711;BME280;51139;45.626;6.850;2022-10-30T05:50:33;82715.63;;;13.60;32.60
64711;BME280;51139;45.626;6.850;2022-10-30T05:53:00;82712.44;;;13.26;33.44
64711;BME280;51139;45.626;6.850;2022-10-30T05:55:26;82708.09;;;13.21;34.01
64711;BME280;51139;45.626;6.850;2022-10-30T05:58:00;82706.44;;;13.25;32.90
64711;BME280;51139;45.626;6.850;2022-10-30T06:00:27;82714.00;;;13.29;32.97
64711;BME280;51139;45.626;6.850;2022-10-30T06:02:59;82707.59;;;13.32;32.47
64711;BME280;51139;45.626;6.850;2022-10-30T06:05:25;82709.72;;;13.34;32.95
64711;BME280;51139;45.626;6.850;2022-10-30T06:07:54;82698.75;;;13.30;33.32
64711;BME280;51139;45.626;6.850;2022-10-30T06:10:20;82700.75;;;13.11;33.70
64711;BME280;51139;45.626;6.850;2022-10-30T06:12:54;82710.50;;;13.09;33.33
64711;BME280;51139;45.626;6.850;2022-10-30T06:15:20;82710.03;;;13.20;32.74
64711;BME280;51139;45.626;6.850;2022-10-30T06:17:45;82709.72;;;13.34;32.98
64711;BME280;51139;45.626;6.850;2022-10-30T06:20:11;82712.38;;;13.16;33.42
64711;BME280;51139;45.626;6.850;2022-10-30T06:22:36;82706.91;;;13.32;32.79
64711;BME280;51139;45.626;6.850;2022-10-30T06:25:02;82706.94;;;13.41;32.67
64711;BME280;51139;45.626;6.850;2022-10-30T06:27:27;82712.53;;;13.18;33.23
64711;BME280;51139;45.626;6.850;2022-10-30T06:29:52;82709.16;;;13.35;32.80
64711;BME280;51139;45.626;6.850;2022-10-30T06:32:19;82722.22;;;13.23;32.82
64711;BME280;51139;45.626;6.850;2022-10-30T06:34:45;82718.31;;;13.42;32.54
64711;BME280;51139;45.626;6.850;2022-10-30T06:37:10;82715.19;;;13.36;33.00
64711;BME280;51139;45.626;6.850;2022-10-30T06:39:36;82719.75;;;13.25;33.76
64711;BME280;51139;45.626;6.850;2022-10-30T06:42:01;82718.50;;;13.26;34.00
64711;BME280;51139;45.626;6.850;2022-10-30T06:44:26;82720.56;;;13.46;32.98
64711;BME280;51139;45.626;6.850;2022-10-30T06:46:52;82715.31;;;13.55;33.02
64711;BME280;51139;45.626;6.850;2022-10-30T06:49:18;82722.75;;;13.39;33.39
64711;BME280;51139;45.626;6.850;2022-10-30T06:51:43;82724.50;;;13.27;33.09
64711;BME280;51139;45.626;6.850;2022-10-30T06:54:09;82724.72;;;13.39;32.77
64711;BME280;51139;45.626;6.850;2022-10-30T06:56:34;82723.16;;;13.53;32.94
64711;BME280;51139;45.626;6.850;2022-10-30T06:58:59;82730.31;;;13.61;31.83
64711;BME280;51139;45.626;6.850;2022-10-30T07:01:25;82728.41;;;13.98;31.01
64711;BME280;51139;45.626;6.850;2022-10-30T07:03:50;82724.84;;;13.86;32.50
64711;BME280;51139;45.626;6.850;2022-10-30T07:06:15;82731.56;;;14.14;31.80
64711;BME280;51139;45.626;6.850;2022-10-30T07:08:41;82734.56;;;14.38;32.51
64711;BME280;51139;45.626;6.850;2022-10-30T07:11:06;82740.44;;;14.74;31.30
64711;BME280;51139;45.626;6.850;2022-10-30T07:13:32;82740.72;;;14.88;30.79
64711;BME280;51139;45.626;6.850;2022-10-30T07:15:58;82738.91;;;15.00;30.80
64711;BME280;51139;45.626;6.850;2022-10-30T07:18:23;82739.47;;;14.99;30.91
64711;BME280;51139;45.626;6.850;2022-10-30T07:20:53;82739.19;;;14.95;30.29
64711;BME280;51139;45.626;6.850;2022-10-30T07:23:19;82740.06;;;15.17;30.33
64711;BME280;51139;45.626;6.850;2022-10-30T07:25:44;82743.56;;;15.00;29.88
64711;BME280;51139;45.626;6.850;2022-10-30T07:28:09;82739.91;;;15.05;30.29
64711;BME280;51139;45.626;6.850;2022-10-30T07:30:35;82739.91;;;15.05;30.00
64711;BME280;51139;45.626;6.850;2022-10-30T07:33:03;82738.50;;;15.53;29.52
64711;BME280;51139;45.626;6.850;2022-10-30T07:35:30;82741.59;;;15.30;29.98
64711;BME280;51139;45.626;6.850;2022-10-30T07:38:04;82739.91;;;15.05;30.84
64711;BME280;51139;45.626;6.850;2022-10-30T07:40:32;82747.06;;;15.02;30.83
64711;BME280;51139;45.626;6.850;2022-10-30T07:42:59;82763.06;;;15.71;30.33
64711;BME280;51139;45.626;6.850;2022-10-30T07:45:25;82753.66;;;15.31;30.89
64711;BME280;51139;45.626;6.850;2022-10-30T07:47:51;82760.84;;;15.48;29.91
64711;BME280;51139;45.626;6.850;2022-10-30T07:50:16;82755.88;;;15.84;27.68
64711;BME280;51139;45.626;6.850;2022-10-30T07:52:42;82745.78;;;15.92;27.12
64711;BME280;51139;45.626;6.850;2022-10-30T07:55:07;82753.56;;;16.61;26.67
64711;BME280;51139;45.626;6.850;2022-10-30T07:57:38;82748.91;;;16.30;26.65
64711;BME280;51139;45.626;6.850;2022-10-30T08:00:06;82752.28;;;16.93;28.10
64711;BME280;51139;45.626;6.850;2022-10-30T08:02:31;82756.31;;;16.83;27.23
64711;BME280;51139;45.626;6.850;2022-10-30T08:04:57;82754.16;;;16.59;28.25
64711;BME280;51139;45.626;6.850;2022-10-30T08:07:22;82760.06;;;16.58;28.15
64711;BME280;51139;45.626;6.850;2022-10-30T08:09:48;82753.53;;;16.29;28.11
64711;BME280;51139;45.626;6.850;2022-10-30T08:12:14;82758.13;;;15.97;28.44
64711;BME280;51139;45.626;6.850;2022-10-30T08:14:39;82750.66;;;16.05;27.85
64711;BME280;51139;45.626;6.850;2022-10-30T08:17:05;82754.78;;;15.67;27.34
64711;BME280;51139;45.626;6.850;2022-10-30T08:19:31;82750.97;;;15.90;28.61
64711;BME280;51139;45.626;6.850;2022-10-30T08:21:57;82750.50;;;16.13;27.14
64711;BME280;51139;45.626;6.850;2022-10-30T08:24:22;82747.81;;;16.55;27.06
64711;BME280;51139;45.626;6.850;2022-10-30T08:26:50;82755.38;;;16.37;27.97
64711;BME280;51139;45.626;6.850;2022-10-30T08:29:16;82752.59;;;16.25;27.82
64711;BME280;51139;45.626;6.850;2022-10-30T08:31:41;82753.66;;;15.70;28.28
64711;BME280;51139;45.626;6.850;2022-10-30T08:34:07;82757.28;;;15.75;29.00
64711;BME280;51139;45.626;6.850;2022-10-30T08:36:33;82748.94;;;16.20;28.94
64711;BME280;51139;45.626;6.850;2022-10-30T08:38:59;82750.75;;;16.59;27.50
64711;BME280;51139;45.626;6.850;2022-10-30T08:41:24;82748.44;;;16.43;27.89
64711;BME280;51139;45.626;6.850;2022-10-30T08:43:50;82752.91;;;16.09;28.18
64711;BME280;51139;45.626;6.850;2022-10-30T08:46:15;82748.81;;;16.18;27.56
64711;BME280;51139;45.626;6.850;2022-10-30T08:48:40;82752.38;;;16.01;27.93
64711;BME280;51139;45.626;6.850;2022-10-30T08:51:06;82748.72;;;15.96;28.78
64711;BME280;51139;45.626;6.850;2022-10-30T08:53:31;82749.31;;;15.95;28.03
64711;BME280;51139;45.626;6.850;2022-10-30T08:55:57;82739.69;;;16.11;28.93
64711;BME280;51139;45.626;6.850;2022-10-30T08:58:22;82751.81;;;16.44;28.26
64711;BME280;51139;45.626;6.850;2022-10-30T09:00:47;82750.41;;;16.01;29.67
64711;BME280;51139;45.626;6.850;2022-10-30T09:03:13;82750.41;;;15.72;29.10
64711;BME280;51139;45.626;6.850;2022-10-30T09:05:38;82747.16;;;15.83;30.51
64711;BME280;51139;45.626;6.850;2022-10-30T09:08:04;82743.22;;;16.77;29.54
64711;BME280;51139;45.626;6.850;2022-10-30T09:10:29;82734.16;;;16.19;28.50
64711;BME280;51139;45.626;6.850;2022-10-30T09:12:57;82749.78;;;16.23;27.93
64711;BME280;51139;45.626;6.850;2022-10-30T09:15:23;82757.75;;;15.71;28.98
64711;BME280;51139;45.626;6.850;2022-10-30T09:18:02;82752.66;;;15.75;27.34
64711;BME280;51139;45.626;6.850;2022-10-30T09:20:29;82750.25;;;16.51;27.97
64711;BME280;51139;45.626;6.850;2022-10-30T09:22:54;82738.41;;;16.54;28.17
64711;BME280;51139;45.626;6.850;2022-10-30T09:25:20;82747.25;;;16.25;29.47
64711;BME280;51139;45.626;6.850;2022-10-30T09:27:46;82734.06;;;16.07;29.97
64711;BME280;51139;45.626;6.850;2022-10-30T09:30:12;82735.97;;;15.65;30.18
64711;BME280;51139;45.626;6.850;2022-10-30T09:32:38;82738.59;;;15.85;31.34
64711;BME280;51139;45.626;6.850;2022-10-30T09:35:05;82736.06;;;15.97;30.17
64711;BME280;51139;45.626;6.850;2022-10-30T09:37:36;82734.63;;;16.15;30.95
64711;BME280;51139;45.626;6.850;2022-10-30T09:40:04;82730.94;;;16.21;29.74
64711;BME280;51139;45.626;6.850;2022-10-30T09:42:43;82733.44;;;15.67;30.59
64711;BME280;51139;45.626;6.850;2022-10-30T09:45:33;82751.06;;;16.12;30.18
64711;BME280;51139;45.626;6.850;2022-10-30T09:56:11;82745.91;;;16.77;28.15
64711;BME280;51139;45.626;6.850;2022-10-30T10:01:41;82751.03;;;16.63;28.54
64711;BME280;51139;45.626;6.850;2022-10-30T10:04:22;82745.03;;;16.84;28.19
64711;BME280;51139;45.626;6.850;2022-10-30T10:06:55;82743.66;;;16.73;28.22
64711;BME280;51139;45.626;6.850;2022-10-30T10:09:25;82747.00;;;16.84;28.90
64711;BME280;51139;45.626;6.850;2022-10-30T10:12:01;82743.38;;;16.79;28.13
64711;BME280;51139;45.626;6.850;2022-10-30T10:14:32;82744.50;;;16.76;29.11
64711;BME280;51139;45.626;6.850;2022-10-30T10:17:01;82754.72;;;16.89;28.38
64711;BME280;51139;45.626;6.850;2022-10-30T10:19:38;82743.13;;;16.65;28.87
64711;BME280;51139;45.626;6.850;2022-10-30T10:22:18;82749.56;;;16.50;28.93
64711;BME280;51139;45.626;6.850;2022-10-30T10:24:44;82748.34;;;16.95;29.60
64711;BME280;51139;45.626;6.850;2022-10-30T10:35:20;82743.34;;;17.11;29.12
64711;BME280;51139;45.626;6.850;2022-10-30T10:38:09;82746.81;;;16.91;30.50
64711;BME280;51139;45.626;6.850;2022-10-30T10:40:58;82737.53;;;17.14;28.10
64711;BME280;51139;45.626;6.850;2022-10-30T10:51:53;82728.84;;;17.14;28.53
64711;BME280;51139;45.626;6.850;2022-10-30T10:54:41;82722.09;;;17.68;28.21
64711;BME280;51139;45.626;6.850;2022-10-30T10:57:14;82711.25;;;17.66;27.51
64711;BME280;51139;45.626;6.850;2022-10-30T10:59:44;82714.53;;;17.76;28.23
64711;BME280;51139;45.626;6.850;2022-10-30T11:02:27;82710.56;;;17.44;27.96
64711;BME280;51139;45.626;6.850;2022-10-30T11:05:01;82715.56;;;17.71;28.43
64711;BME280;51139;45.626;6.850;2022-10-30T11:07:31;82714.59;;;17.55;27.89
64711;BME280;51139;45.626;6.850;2022-10-30T11:09:57;82722.84;;;16.40;27.54
64711;BME280;51139;45.626;6.850;2022-10-30T11:12:28;82720.16;;;17.25;28.34
64711;BME280;51139;45.626;6.850;2022-10-30T11:14:57;82715.13;;;17.19;29.11
64711;BME280;51139;45.626;6.850;2022-10-30T11:17:37;82704.25;;;17.61;28.50
64711;BME280;51139;45.626;6.850;2022-10-30T11:20:18;82702.13;;;17.59;28.74
64711;BME280;51139;45.626;6.850;2022-10-30T11:22:48;82707.78;;;17.42;29.94
64711;BME280;51139;45.626;6.850;2022-10-30T11:25:20;82705.16;;;17.54;30.20
64711;BME280;51139;45.626;6.850;2022-10-30T11:27:48;82693.16;;;17.55;28.02
64711;BME280;51139;45.626;6.850;2022-10-30T11:30:19;82703.22;;;17.66;30.45
64711;BME280;51139;45.626;6.850;2022-10-30T11:32:45;82695.34;;;17.80;29.56
64711;BME280;51139;45.626;6.850;2022-10-30T11:35:13;82697.72;;;17.30;30.54
64711;BME280;51139;45.626;6.850;2022-10-30T11:37:41;82700.91;;;17.39;29.23
64711;BME280;51139;45.626;6.850;2022-10-30T11:42:36;82697.81;;;17.88;29.58
64711;BME280;51139;45.626;6.850;2022-10-30T11:45:03;82691.09;;;18.11;31.10
64711;BME280;51139;45.626;6.850;2022-10-30T11:47:37;82704.75;;;17.14;28.03
64711;BME280;51139;45.626;6.850;2022-10-30T11:50:20;82700.22;;;17.38;29.78
64711;BME280;51139;45.626;6.850;2022-10-30T11:52:48;82679.50;;;17.17;29.41
64711;BME280;51139;45.626;6.850;2022-10-30T11:55:33;82693.56;;;16.96;28.68
64711;BME280;51139;45.626;6.850;2022-10-30T11:58:00;82690.03;;;17.25;28.10
64711;BME280;51139;45.626;6.850;2022-10-30T12:00:28;82691.41;;;17.47;28.59
64711;BME280;51139;45.626;6.850;2022-10-30T12:02:56;82682.69;;;17.25;28.91
64711;BME280;51139;45.626;6.850;2022-10-30T12:07:54;82674.34;;;17.76;29.48
64711;BME280;51139;45.626;6.850;2022-10-30T12:10:57;82680.69;;;17.93;31.14
64711;BME280;51139;45.626;6.850;2022-10-30T12:13:24;82678.66;;;17.14;28.17
64711;BME280;51139;45.626;6.850;2022-10-30T12:16:06;82666.63;;;17.59;29.49
64711;BME280;51139;45.626;6.850;2022-10-30T12:18:33;82668.97;;;17.64;28.04
64711;BME280;51139;45.626;6.850;2022-10-30T12:20:59;82670.75;;;17.38;30.13
64711;BME280;51139;45.626;6.850;2022-10-30T12:23:27;82677.50;;;16.74;27.54
64711;BME280;51139;45.626;6.850;2022-10-30T12:26:06;82676.09;;;16.73;28.98
64711;BME280;51139;45.626;6.850;2022-10-30T12:28:33;82667.19;;;16.80;28.13
64711;BME280;51139;45.626;6.850;2022-10-30T12:31:09;82661.66;;;17.10;28.98
64711;BME280;51139;45.626;6.850;2022-10-30T12:33:39;82656.88;;;17.30;28.95
64711;BME280;51139;45.626;6.850;2022-10-30T12:36:15;82657.13;;;16.90;27.96
64711;BME280;51139;45.626;6.850;2022-10-30T12:38:48;82654.00;;;16.51;28.66
64711;BME280;51139;45.626;6.850;2022-10-30T12:41:38;82656.53;;;16.48;29.43
64711;BME280;51139;45.626;6.850;2022-10-30T12:47:00;82660.09;;;16.63;29.90
64711;BME280;51139;45.626;6.850;2022-10-30T12:49:46;82666.63;;;16.82;29.51
64711;BME280;51139;45.626;6.850;2022-10-30T12:52:20;82652.66;;;16.61;28.54
64711;BME280;51139;45.626;6.850;2022-10-30T12:55:08;82654.09;;;16.31;31.46
64711;BME280;51139;45.626;6.850;2022-10-30T12:57:42;82653.69;;;16.78;28.27
64711;BME280;51139;45.626;6.850;2022-10-30T13:00:15;82650.13;;;16.63;27.46
64711;BME280;51139;45.626;6.850;2022-10-30T13:05:29;82642.63;;;16.72;29.83
64711;BME280;51139;45.626;6.850;2022-10-30T13:08:19;82649.28;;;16.61;29.80
64711;BME280;51139;45.626;6.850;2022-10-30T13:10:55;82637.25;;;16.93;29.23
64711;BME280;51139;45.626;6.850;2022-10-30T13:13:40;82636.69;;;17.17;30.17
64711;BME280;51139;45.626;6.850;2022-10-30T13:16:21;82627.75;;;17.24;29.90
64711;BME280;51139;45.626;6.850;2022-10-30T13:18:51;82635.47;;;17.30;29.99
64711;BME280;51139;45.626;6.850;2022-10-30T13:21:36;82627.94;;;17.16;31.44
64711;BME280;51139;45.626;6.850;2022-10-30T13:26:41;82620.88;;;17.67;29.44
64711;BME280;51139;45.626;6.850;2022-10-30T13:31:46;82617.94;;;17.50;28.28
64711;BME280;51139;45.626;6.850;2022-10-30T13:34:23;82623.06;;;17.46;28.55
64711;BME280;51139;45.626;6.850;2022-10-30T13:40:04;82619.47;;;17.54;28.11
64711;BME280;51139;45.626;6.850;2022-10-30T13:47:58;82622.94;;;17.56;27.43
64711;BME280;51139;45.626;6.850;2022-10-30T13:53:24;82622.34;;;18.03;27.61
64711;BME280;51139;45.626;6.850;2022-10-30T13:55:51;82622.91;;;17.90;27.45
64711;BME280;51139;45.626;6.850;2022-10-30T13:58:28;82624.50;;;17.71;28.68
64711;BME280;51139;45.626;6.850;2022-10-30T14:06:41;82618.50;;;17.49;28.45
64711;BME280;51139;45.626;6.850;2022-10-30T14:09:32;82623.06;;;17.46;28.59
64711;BME280;51139;45.626;6.850;2022-10-30T14:15:16;82618.72;;;17.41;29.16
64711;BME280;51139;45.626;6.850;2022-10-30T14:20:47;82618.63;;;17.51;29.60
64711;BME280;51139;45.626;6.850;2022-10-30T14:26:11;82617.41;;;17.30;29.91
64711;BME280;51139;45.626;6.850;2022-10-30T14:28:39;82619.50;;;17.77;29.61
64711;BME280;51139;45.626;6.850;2022-10-30T14:31:07;82607.66;;;17.47;29.31
64711;BME280;51139;45.626;6.850;2022-10-30T14:33:51;82605.13;;;17.49;29.22
64711;BME280;51139;45.626;6.850;2022-10-30T14:38:52;82613.50;;;17.43;29.40
64711;BME280;51139;45.626;6.850;2022-10-30T14:44:26;82602.75;;;17.31;31.70
64711;BME280;51139;45.626;6.850;2022-10-30T14:47:19;82610.22;;;17.33;30.02
64711;BME280;51139;45.626;6.850;2022-10-30T15:06:04;82615.03;;;16.47;31.64
64711;BME280;51139;45.626;6.850;2022-10-30T15:13:50;82597.91;;;16.41;32.22
64711;BME280;51139;45.626;6.850;2022-10-30T15:16:18;82596.38;;;16.38;32.45
64711;BME280;51139;45.626;6.850;2022-10-30T15:18:46;82599.19;;;16.61;31.65